Terminal Aerodrome Forecast
Issued by NWS

Home | Current Version | Previous Version | Graphics & Text | Print | Product List | Glossary On
Versions: 1 2 3 4 5 6 7 8 9 10 11 12 13 14 15 16 17 18 19 20 21 22 23 24 25 26 27 28 29 30 31 32 33 34
000
FTUS43 KLOT 160900 AAC
TAFORD
TAF AMD
KORD 160956Z 1610/1712 VRB03KT 1SM -SHRA BR OVC003
      TEMPO 1610/1612 1/2SM FG VV002
     FM161300 30005KT 2SM -SHRA BR OVC004
     FM161500 28008KT 3SM -SHRADZ BR OVC006
     FM161700 29012KT 6SM BR VCSH OVC009
     FM161900 31015G24KT P6SM OVC015
     FM170100 30014G21KT P6SM OVC025
     FM170500 29011KT P6SM OVC035=

USA.gov is the U.S. government's official web portal to all federal, state and local government web resources and services.